Data for 11/20/2007

Time Sea-Level Adjusted Pressure Absolute Pressure Temperature Relative Humidity Dew Point   
(mb) (inHg) (mb) (inHg) (C) (F) (%) (C) (F)
00:05 1017 30.03 846 24.98 -4.6 23.7 91 -5.9 21.4
00:10 1017 30.03 846 24.98 -4.6 23.7 90 -6 21.3
00:15 1017 30.03 846 24.98 -4.6 23.7 91 -5.9 21.4
00:20 1017 30.03 846 24.98 -4.6 23.6 92 -5.8 21.6
00:25 1017 30.03 846 24.98 -4.6 23.7 91 -5.9 21.3
00:30 1017 30.03 846 24.98 -4.7 23.6 90 -6.1 21.1
00:35 1017 30.03 846 24.98 -4.7 23.5 90 -6.2 20.9
00:40 1017 30.03 846 24.98 -4.7 23.5 89 -6.2 20.8
00:45 1017 30.03 846 24.98 -4.8 23.4 88 -6.4 20.4
00:50 1017 30.03 846 24.98 -4.8 23.4 88 -6.4 20.4
00:55 1017 30.03 846 24.98 -4.8 23.4 87 -6.6 20.1
01:00 1017 30.03 846 24.98 -4.8 23.3 87 -6.7 19.9
01:05 1017 30.03 847 25.01 -4.8 23.3 87 -6.7 19.9
01:10 1017 30.03 847 25.01 -4.9 23.2 87 -6.6 20
01:15 1017 30.03 847 25.01 -4.9 23.2 87 -6.8 19.8
01:20 1017 30.03 847 25.01 -4.9 23.2 87 -6.7 20
01:25 1017 30.03 847 25.01 -4.9 23.1 87 -6.8 19.8
01:30 1017 30.03 847 25.01 -5 23.1 87 -6.7 19.9
01:35 1017 30.03 847 25.01 -5 23 87 -6.8 19.7
01:40 1017 30.03 847 25.01 -5.1 22.9 87 -6.9 19.5
01:45 1017 30.03 847 25.01 -5.1 22.8 87 -6.9 19.5
01:50 1018 30.06 847 25.01 -5.1 22.8 87 -6.9 19.6
01:55 1018 30.06 847 25.01 -5.1 22.8 88 -6.9 19.7
02:00 1018 30.06 847 25.01 -5.1 22.8 88 -6.9 19.6
02:05 1018 30.06 847 25.01 -5.2 22.7 88 -6.8 19.7
02:10 1018 30.06 847 25.01 -5.2 22.6 89 -6.8 19.7
02:15 1018 30.06 847 25.01 -5.2 22.6 89 -6.7 19.9
02:20 1018 30.06 847 25.01 -5.3 22.5 89 -6.8 19.8
02:25 1018 30.06 847 25.01 -5.3 22.5 89 -6.8 19.8
02:30 1018 30.06 847 25.01 -5.3 22.5 89 -6.8 19.7
02:35 1018 30.06 847 25.01 -5.3 22.4 89 -6.9 19.6
02:40 1018 30.06 847 25.01 -5.4 22.4 90 -6.8 19.8
02:45 1018 30.06 847 25.01 -5.4 22.3 90 -6.8 19.8
02:50 1018 30.06 847 25.01 -5.4 22.2 91 -6.7 20
02:55 1018 30.06 848 25.04 -5.4 22.2 91 -6.7 19.9
03:00 1018 30.06 848 25.04 -5.5 22.1 91 -6.7 19.9
03:05 1019 30.09 848 25.04 -5.5 22.2 91 -6.8 19.8
03:10 1019 30.09 848 25.04 -5.5 22.2 90 -6.8 19.7
03:15 1019 30.09 848 25.04 -5.5 22.1 90 -6.8 19.7
03:20 1019 30.09 848 25.04 -5.5 22.1 90 -6.9 19.5
03:25 1019 30.09 848 25.04 -5.5 22.1 90 -7 19.4
03:30 1019 30.09 848 25.04 -5.5 22 89 -7 19.3
03:35 1019 30.09 848 25.04 -5.6 22 90 -7 19.3
03:40 1019 30.09 848 25.04 -5.6 22 89 -7.1 19.3
03:45 1019 30.09 848 25.04 -5.6 22 90 -7 19.4
03:50 1019 30.09 848 25.04 -5.6 22 90 -7 19.4
03:55 1019 30.09 848 25.04 -5.6 22 89 -7.1 19.3
04:00 1019 30.09 848 25.04 -5.6 21.9 89 -7.2 19.1
04:05 1019 30.09 848 25.04 -5.6 22 88 -7.2 19
04:10 1019 30.09 848 25.04 -5.6 22 88 -7.3 18.8
04:15 1019 30.09 848 25.04 -5.5 22 87 -7.4 18.7
04:20 1019 30.09 848 25.04 -5.5 22 87 -7.4 18.8
04:25 1019 30.09 848 25.04 -5.5 22.1 87 -7.4 18.7
04:30 1019 30.09 848 25.04 -5.5 22.1 86 -7.6 18.4
04:35 1019 30.09 848 25.04 -5.5 22 86 -7.6 18.4
04:40 1019 30.09 848 25.04 -5.6 22 86 -7.6 18.3
04:45 1019 30.09 848 25.04 -5.5 22 85 -7.7 18.1
04:50 1019 30.09 849 25.07 -5.5 22.1 86 -7.5 18.5
04:55 1019 30.09 849 25.07 -5.5 22.1 85 -7.6 18.3
05:00 1019 30.09 849 25.07 -5.5 22.1 85 -7.7 18.2
05:05 1020 30.12 849 25.07 -5.5 22.1 84 -7.8 18
05:10 1020 30.12 849 25.07 -5.5 22.1 84 -7.8 18
05:15 1020 30.12 849 25.07 -5.5 22.1 84 -7.8 17.9
05:20 1020 30.12 849 25.07 -5.5 22.1 85 -7.7 18.2
05:25 1020 30.12 849 25.07 -5.5 22.1 84 -7.8 17.9
05:30 1020 30.12 849 25.07 -5.5 22.1 85 -7.7 18.1
05:35 1020 30.12 849 25.07 -5.5 22 85 -7.7 18.1
05:40 1020 30.12 849 25.07 -5.5 22.1 84 -7.8 18
05:45 1020 30.12 849 25.07 -5.5 22.1 83 -7.9 17.8
05:50 1020 30.12 849 25.07 -5.5 22 83 -8 17.7
05:55 1020 30.12 849 25.07 -5.5 22 83 -8 17.6
06:00 1020 30.12 849 25.07 -5.6 22 84 -7.9 17.8
06:05 1020 30.12 849 25.07 -5.6 22 84 -7.9 17.8
06:10 1020 30.12 849 25.07 -5.6 22 84 -7.8 17.9
06:15 1020 30.12 849 25.07 -5.6 21.9 84 -7.8 17.9
06:20 1020 30.12 849 25.07 -5.6 21.9 84 -7.9 17.9
06:25 1020 30.12 849 25.07 -5.6 21.9 85 -7.7 18.1
06:30 1020 30.12 849 25.07 -5.6 21.9 85 -7.7 18.1
06:35 1020 30.12 849 25.07 -5.7 21.8 85 -7.8 17.9
06:40 1020 30.12 849 25.07 -5.7 21.8 86 -7.7 18.1
06:45 1020 30.12 849 25.07 -5.7 21.7 86 -7.7 18.1
06:50 1020 30.12 849 25.07 -5.7 21.7 86 -7.7 18.2
06:55 1020 30.12 850 25.1 -5.7 21.7 85 -7.8 17.9
07:00 1020 30.12 850 25.1 -5.7 21.7 85 -7.9 17.8
07:05 1020 30.12 850 25.1 -5.7 21.7 84 -8 17.6
07:10 1020 30.12 850 25.1 -5.7 21.8 85 -7.7 18.1
07:15 1021 30.15 850 25.1 -5.7 21.8 85 -7.8 18
07:20 1021 30.15 850 25.1 -5.6 21.8 85 -7.8 17.9
07:25 1021 30.15 850 25.1 -5.6 21.9 84 -7.9 17.8
07:30 1021 30.15 850 25.1 -5.7 21.8 86 -7.6 18.2
07:35 1021 30.15 850 25.1 -5.7 21.8 86 -7.6 18.2
07:40 1021 30.15 850 25.1 -5.7 21.7 86 -7.7 18.1
07:45 1021 30.15 850 25.1 -5.7 21.7 86 -7.7 18.2
07:50 1021 30.15 850 25.1 -5.7 21.7 86 -7.7 18.1
07:55 1021 30.15 850 25.1 -5.7 21.7 86 -7.7 18.1
08:00 1021 30.15 850 25.1 -5.7 21.7 86 -7.7 18.1
08:05 1021 30.15 850 25.1 -5.7 21.8 85 -7.8 18
08:10 1021 30.15 850 25.1 -5.7 21.8 85 -7.8 18
08:15 1021 30.15 851 25.13 -5.7 21.8 86 -7.6 18.3
08:20 1021 30.15 851 25.13 -5.6 21.9 86 -7.6 18.4
08:25 1021 30.15 851 25.13 -5.6 21.9 87 -7.4 18.6
08:30 1021 30.15 851 25.13 -5.6 22 87 -7.3 18.8
08:35 1021 30.15 851 25.13 -5.5 22.1 87 -7.4 18.7
08:40 1021 30.15 851 25.13 -5.4 22.3 87 -7.3 18.9
08:45 1021 30.15 851 25.13 -5.3 22.5 85 -7.4 18.7
08:50 1021 30.15 851 25.13 -5.2 22.6 85 -7.4 18.7
08:55 1021 30.15 851 25.13 -5.1 22.8 84 -7.4 18.7
09:00 1021 30.15 851 25.13 -5 23 83 -7.5 18.6
09:05 1022 30.18 851 25.13 -4.8 23.3 83 -7.3 18.8
09:10 1022 30.18 851 25.13 -4.6 23.8 82 -7.2 19
09:15 1021 30.15 851 25.13 -4.4 24.2 81 -7.1 19.1
09:20 1022 30.18 851 25.13 -4.2 24.5 79 -7.3 18.9
09:25 1022 30.18 851 25.13 -4.3 24.3 81 -7 19.3
09:30 1022 30.18 851 25.13 -4.4 24.2 78 -7.7 18.2
09:35 1022 30.18 851 25.13 -4.4 24 78 -7.7 18.1
09:40 1022 30.18 851 25.13 -4.3 24.3 78 -7.6 18.3
09:45 1022 30.18 851 25.13 -4.1 24.6 76 -7.7 18.2
09:50 1022 30.18 851 25.13 -4.1 24.6 75 -7.8 17.9
09:55 1022 30.18 851 25.13 -4.1 24.6 76 -7.7 18.1
10:00 1022 30.18 851 25.13 -4 24.8 76 -7.6 18.3
10:05 1022 30.18 851 25.13 -3.7 25.4 73 -7.9 17.8
10:10 1022 30.18 851 25.13 -3.5 25.7 73 -7.7 18.1
10:15 1022 30.18 851 25.13 -3.7 25.4 73 -7.9 17.7
10:20 1022 30.18 851 25.13 -3.6 25.5 72 -8 17.6
10:25 1022 30.18 851 25.13 -3.4 25.8 71 -7.9 17.8
10:30 1022 30.18 851 25.13 -3.2 26.3 70 -7.9 17.7
10:35 1022 30.18 851 25.13 -3 26.6 69 -8 17.7
10:40 1022 30.18 851 25.13 -2.8 26.9 69 -7.8 18
10:45 1022 30.18 851 25.13 -2.8 26.9 68 -7.9 17.8
10:50 1022 30.18 851 25.13 -2.6 27.3 66 -8 17.6
10:55 1022 30.18 851 25.13 -2.6 27.3 67 -7.9 17.7
11:00 1022 30.18 851 25.13 -2.8 26.9 71 -7.5 18.5
11:05 1022 30.18 852 25.16 -2.6 27.3 69 -7.6 18.3
11:10 1022 30.18 852 25.16 -3 26.7 73 -7.2 19
11:15 1022 30.18 852 25.16 -2.7 27.1 80 -5.7 21.7
11:20 1022 30.18 852 25.16 -2.4 27.6 79 -5.6 22
11:25 1022 30.18 852 25.16 -2.5 27.5 78 -5.7 21.7
11:30 1022 30.18 852 25.16 -1.8 28.8 76 -5.4 22.3
11:35 1022 30.18 852 25.16 -2 28.4 78 -5.4 22.3
11:40 1022 30.18 852 25.16 -2.1 28.3 77 -5.5 22.1
11:45 1022 30.18 852 25.16 -2.3 27.8 79 -5.5 22.1
11:50 1022 30.18 852 25.16 -2.4 27.7 81 -5.3 22.5
11:55 1022 30.18 852 25.16 -2.6 27.3 81 -5.4 22.2
12:00 1022 30.18 852 25.16 -2.4 27.7 80 -5.4 22.2
12:05 1022 30.18 852 25.16 -2.2 28 81 -5 22.9
12:10 1022 30.18 852 25.16 -2.7 27.2 81 -5.5 22.1
12:15 1022 30.18 852 25.16 -3.1 26.3 84 -5.4 22.2
12:20 1022 30.18 852 25.16 -3.6 25.5 86 -5.6 21.9
12:25 1022 30.18 852 25.16 -3.5 25.7 84 -5.8 21.5
12:30 1022 30.18 852 25.16 -2.9 26.8 82 -5.6 22
12:35 1022 30.18 852 25.16 -2.2 28.1 81 -5 22.9
12:40 1022 30.18 852 25.16 -2.1 28.2 78 -5.5 22
12:45 1022 30.18 852 25.16 -2.5 27.4 85 -4.7 23.5
12:50 1022 30.18 852 25.16 -3.2 26.2 84 -5.6 22
12:55 1022 30.18 852 25.16 -3.4 26 87 -5.2 22.7
13:00 1022 30.18 852 25.16 -3.3 26 85 -5.5 22.2
13:05 1022 30.18 852 25.16 -3.8 25.1 89 -5.3 22.4
13:10 1022 30.18 852 25.16 -3.6 25.6 85 -5.8 21.6
13:15 1022 30.18 852 25.16 -2.8 26.9 82 -5.4 22.2
13:20 1022 30.18 852 25.16 -2.3 27.8 80 -5.4 22.3
13:25 1022 30.18 852 25.16 -1.8 28.8 77 -5.2 22.6
13:30 1023 30.21 852 25.16 -1.9 28.6 79 -5 23
13:35 1022 30.18 852 25.16 -2.6 27.2 80 -5.6 21.9
13:40 1023 30.21 852 25.16 -2.2 28.1 78 -5.5 22
13:45 1022 30.18 852 25.16 -1.8 28.8 76 -5.4 22.2
13:50 1022 30.18 852 25.16 -1.3 29.7 73 -5.6 21.9
13:55 1022 30.18 852 25.16 -0.9 30.4 71 -5.5 22.1
14:00 1022 30.18 852 25.16 -0.4 31.3 72 -4.9 23.2
14:05 1022 30.18 852 25.16 -1.6 29 77 -5.2 22.7
14:10 1023 30.21 852 25.16 -2.1 28.3 77 -5.5 22.1
14:15 1022 30.18 852 25.16 -2.4 27.8 78 -5.7 21.8
14:20 1022 30.18 852 25.16 -3 26.6 80 -6 21.3
14:25 1022 30.18 852 25.16 -2.8 27 80 -5.7 21.7
14:30 1022 30.18 852 25.16 -3.4 25.9 81 -6.2 20.8
14:35 1022 30.18 852 25.16 -3.2 26.2 82 -5.9 21.4
14:40 1023 30.21 852 25.16 -3 26.7 79 -6 21.1
14:45 1023 30.21 852 25.16 -2.8 27 76 -6.4 20.4
14:50 1023 30.21 852 25.16 -2.1 28.2 75 -6 21.3
14:55 1023 30.21 852 25.16 -1.4 29.4 71 -6.1 21
15:00 1023 30.21 852 25.16 -1.4 29.4 70 -6.1 21
15:05 1023 30.21 852 25.16 -1.7 29 73 -6 21.2
15:10 1023 30.21 852 25.16 -2 28.4 73 -6.3 20.7
15:15 1023 30.21 852 25.16 -1.9 28.5 74 -6 21.3
15:20 1023 30.21 852 25.16 -2.1 28.2 75 -6 21.3
15:25 1023 30.21 852 25.16 -2 28.3 72 -6.4 20.5
15:30 1023 30.21 852 25.16 -2.2 28.1 74 -6.1 20.9
15:35 1023 30.21 852 25.16 -2.1 28.2 73 -6.2 20.8
15:40 1023 30.21 852 25.16 -2.6 27.4 77 -6.1 21
15:45 1023 30.21 852 25.16 -3.2 26.3 79 -6.2 20.8
15:50 1023 30.21 852 25.16 -3.4 25.8 81 -6.3 20.6
15:55 1023 30.21 852 25.16 -3.6 25.5 81 -6.4 20.5
16:00 1023 30.21 852 25.16 -3.9 25.1 83 -6.4 20.5
16:05 1023 30.21 852 25.16 -3.9 25 84 -6.2 20.8
16:10 1023 30.21 852 25.16 -4.1 24.7 85 -6.2 20.8
16:15 1023 30.21 852 25.16 -4.2 24.5 86 -6.2 20.8
16:20 1023 30.21 852 25.16 -4.2 24.4 86 -6.2 20.8
16:25 1023 30.21 852 25.16 -4.3 24.3 87 -6.2 20.8
16:30 1023 30.21 852 25.16 -4.4 24.1 87 -6.2 20.8
16:35 1023 30.21 853 25.19 -4.4 24 87 -6.2 20.8
16:40 1023 30.21 853 25.19 -4.6 23.8 90 -6.1 21.1
16:45 1023 30.21 853 25.19 -4.7 23.6 89 -6.2 20.8
16:50 1023 30.21 853 25.19 -4.9 23.2 91 -6.1 21
16:55 1023 30.21 853 25.19 -5.1 22.8 93 -6.2 20.9
17:00 1023 30.21 853 25.19 -5 23 92 -6.1 21
17:05 1024 30.24 853 25.19 -5 23.1 92 -6 21.1
17:10 1024 30.24 853 25.19 -5 23.1 93 -6 21.2
17:15 1024 30.24 853 25.19 -4.9 23.1 92 -6 21.2
17:20 1024 30.24 853 25.19 -4.9 23.2 92 -6.1 21
17:25 1024 30.24 853 25.19 -5 23 92 -6.2 20.9
17:30 1024 30.24 853 25.19 -5.2 22.6 90 -6.5 20.2
17:35 1024 30.24 853 25.19 -5.7 21.8 92 -6.8 19.8
17:40 1024 30.24 853 25.19 -6.2 20.8 93 -7.2 19.1
17:45 1024 30.24 853 25.19 -6.3 20.6 93 -7.2 19
17:50 1024 30.24 853 25.19 -6.1 21.1 93 -7 19.3
17:55 1024 30.24 853 25.19 -5.9 21.4 92 -7 19.5
18:00 1024 30.24 853 25.19 -5.8 21.6 92 -6.8 19.7
18:05 1024 30.24 853 25.19 -5.6 22 91 -6.8 19.7
18:10 1024 30.24 853 25.19 -5.5 22.1 90 -6.8 19.7
18:15 1024 30.24 853 25.19 -5.5 22.1 90 -6.8 19.7
18:20 1024 30.24 853 25.19 -5.7 21.8 91 -6.9 19.6
18:25 1024 30.24 854 25.22 -5.8 21.6 91 -7 19.3
18:30 1024 30.24 854 25.22 -5.7 21.7 91 -7 19.4
18:35 1024 30.24 854 25.22 -5.7 21.7 91 -7 19.3
18:40 1024 30.24 854 25.22 -5.7 21.7 90 -7.1 19.3
18:45 1025 30.27 854 25.22 -5.9 21.4 91 -7.1 19.3
18:50 1024 30.24 854 25.22 -6 21.2 91 -7.2 19.1
18:55 1024 30.24 854 25.22 -6.1 21.1 91 -7.3 18.8
19:00 1024 30.24 854 25.22 -6.2 20.9 92 -7.3 18.9
19:05 1025 30.27 854 25.22 -6.1 20.9 91 -7.4 18.7
19:10 1025 30.27 854 25.22 -6.3 20.7 93 -7.3 18.8
19:15 1024 30.24 854 25.22 -6.1 21 92 -7.2 19
19:20 1024 30.24 854 25.22 -6 21.2 91 -7.2 19.1
19:25 1024 30.24 854 25.22 -5.9 21.4 91 -7.1 19.2
19:30 1024 30.24 854 25.22 -5.8 21.5 90 -7.2 19
19:35 1024 30.24 854 25.22 -5.9 21.3 90 -7.3 18.8
19:40 1024 30.24 854 25.22 -6.1 21 91 -7.3 18.9
19:45 1024 30.24 854 25.22 -6.2 20.8 90 -7.6 18.4
19:50 1025 30.27 854 25.22 -6.4 20.4 91 -7.7 18.2
19:55 1025 30.27 854 25.22 -6.5 20.3 92 -7.6 18.3
20:00 1025 30.27 854 25.22 -6.4 20.5 92 -7.5 18.5
20:05 1025 30.27 854 25.22 -6.3 20.7 91 -7.5 18.4
20:10 1025 30.27 854 25.22 -6.2 20.8 91 -7.4 18.6
20:15 1025 30.27 854 25.22 -6.2 20.8 90 -7.5 18.5
20:20 1025 30.27 854 25.22 -6.4 20.4 92 -7.6 18.4
20:25 1025 30.27 854 25.22 -6.4 20.5 92 -7.5 18.4
20:30 1025 30.27 854 25.22 -6.3 20.7 92 -7.4 18.7
20:35 1025 30.27 854 25.22 -6.2 20.8 92 -7.3 18.9
20:40 1025 30.27 854 25.22 -6.1 21 92 -7.1 19.1
20:45 1025 30.27 854 25.22 -6 21.2 92 -7.1 19.2
20:50 1025 30.27 854 25.22 -6 21.2 91 -7.2 19
20:55 1025 30.27 854 25.22 -5.9 21.4 91 -7.1 19.3
21:00 1025 30.27 854 25.22 -5.8 21.5 90 -7.2 19
21:05 1025 30.27 854 25.22 -6.1 21 91 -7.3 18.8
21:10 1025 30.27 854 25.22 -6.5 20.3 91 -7.7 18.1
21:15 1025 30.27 854 25.22 -6.7 20 91 -7.8 17.9
21:20 1025 30.27 854 25.22 -6.9 19.6 93 -7.8 17.9
21:25 1025 30.27 854 25.22 -6.9 19.5 94 -7.8 17.9
21:30 1025 30.27 854 25.22 -7 19.5 94 -7.8 18
21:35 1025 30.27 854 25.22 -6.9 19.6 93 -7.8 18
21:40 1025 30.27 854 25.22 -6.7 19.9 93 -7.8 18
21:45 1025 30.27 854 25.22 -6.6 20.2 91 -7.8 18
21:50 1025 30.27 854 25.22 -6.5 20.3 90 -7.9 17.9
21:55 1025 30.27 854 25.22 -6.5 20.3 90 -7.9 17.9
22:00 1025 30.27 854 25.22 -6.5 20.3 91 -7.7 18.1
22:05 1025 30.27 855 25.25 -6.4 20.4 91 -7.7 18.2
22:10 1025 30.27 855 25.25 -6.4 20.5 89 -8 17.7
22:15 1025 30.27 855 25.25 -6.7 19.9 90 -8.1 17.5
22:20 1025 30.27 855 25.25 -7 19.5 91 -8.2 17.3
22:25 1025 30.27 855 25.25 -7 19.5 91 -8.1 17.4
22:30 1025 30.27 855 25.25 -6.9 19.7 91 -8.1 17.4
22:35 1025 30.27 855 25.25 -6.8 19.7 91 -8 17.5
22:40 1026 30.3 855 25.25 -6.8 19.7 91 -8 17.6
22:45 1026 30.3 855 25.25 -6.9 19.6 92 -8 17.6
22:50 1026 30.3 855 25.25 -6.8 19.8 91 -8 17.6
22:55 1026 30.3 855 25.25 -6.8 19.8 92 -7.9 17.8
23:00 1026 30.3 855 25.25 -6.7 20 92 -7.8 18
23:05 1026 30.3 855 25.25 -6.6 20.2 92 -7.7 18.2
23:10 1026 30.3 855 25.25 -6.5 20.2 91 -7.8 18
23:15 1026 30.3 855 25.25 -6.5 20.2 91 -7.7 18.1
23:20 1026 30.3 855 25.25 -6.5 20.3 91 -7.7 18.2
23:25 1026 30.3 855 25.25 -6.4 20.4 93 -7.5 18.6
23:30 1026 30.3 855 25.25 -6.5 20.3 92 -7.5 18.5
23:35 1026 30.3 855 25.25 -6.4 20.4 93 -7.4 18.7
23:40 1026 30.3 855 25.25 -6.5 20.3 93 -7.5 18.5
23:45 1026 30.3 855 25.25 -6.4 20.4 92 -7.5 18.5
23:50 1026 30.3 855 25.25 -6.4 20.5 91 -7.6 18.3
23:55 1026 30.3 855 25.25 -6.4 20.5 91 -7.6 18.3
24:00 1026 30.3 855 25.25 -6.6 20.1 92 -7.8 18